createdAt,value
2018-06-17T00:02:01.768Z,17.09
2018-06-17T00:04:34.104Z,17.08
2018-06-17T00:07:06.077Z,17.09
2018-06-17T00:09:38.250Z,17.10
2018-06-17T00:12:10.594Z,16.84
2018-06-17T00:14:44.083Z,16.92
2018-06-17T00:17:14.440Z,17.01
2018-06-17T00:19:47.884Z,16.86
2018-06-17T00:22:19.933Z,16.92
2018-06-17T00:24:53.436Z,16.96
2018-06-17T00:27:25.373Z,17.06
2018-06-17T00:30:00.000Z,17.12
2018-06-17T00:32:32.052Z,16.95
2018-06-17T00:35:05.934Z,16.87
2018-06-17T00:37:36.058Z,16.94
2018-06-17T00:40:11.204Z,16.89
2018-06-17T00:42:44.059Z,16.94
2018-06-17T00:45:18.039Z,17.07
2018-06-17T00:47:50.317Z,17.12
2018-06-17T00:50:25.594Z,17.20
2018-06-17T00:53:00.966Z,17.12
2018-06-17T00:55:34.291Z,17.19
2018-06-17T00:58:06.172Z,17.23
2018-06-17T01:00:41.136Z,17.19
2018-06-17T01:03:15.996Z,17.24
2018-06-17T01:05:48.762Z,17.17
2018-06-17T01:08:24.520Z,17.06
2018-06-17T01:10:55.912Z,17.04
2018-06-17T01:13:27.829Z,17.09
2018-06-17T01:16:01.425Z,17.09
2018-06-17T01:18:33.066Z,17.14
2018-06-17T01:21:05.461Z,16.97
2018-06-17T01:23:39.312Z,16.93
2018-06-17T01:26:10.480Z,16.99
2018-06-17T01:28:44.352Z,16.98
2018-06-17T01:31:17.610Z,16.93
2018-06-17T01:33:52.225Z,16.93
2018-06-17T01:36:25.845Z,16.81
2018-06-17T01:38:57.376Z,16.69
2018-06-17T01:41:32.478Z,16.60
2018-06-17T01:44:05.539Z,16.56
2018-06-17T01:46:38.791Z,16.47
2018-06-17T01:49:12.109Z,16.47
2018-06-17T01:51:43.731Z,16.41
2018-06-17T01:54:15.216Z,16.30
2018-06-17T01:56:48.713Z,16.25
2018-06-17T01:59:22.776Z,16.30
2018-06-17T02:01:55.914Z,16.19
2018-06-17T02:04:46.482Z,16.20
2018-06-17T02:07:35.242Z,16.11
2018-06-17T02:10:26.070Z,16.05
2018-06-17T02:12:59.184Z,15.96
2018-06-17T02:15:32.512Z,15.87
2018-06-17T02:18:05.485Z,15.75
2018-06-17T02:20:35.534Z,15.84
2018-06-17T02:23:07.090Z,15.84
2018-06-17T02:25:40.175Z,15.68
2018-06-17T02:28:13.804Z,15.74
2018-06-17T02:30:46.985Z,15.69
2018-06-17T02:33:20.233Z,15.80
2018-06-17T02:35:51.839Z,15.75
2018-06-17T02:38:23.386Z,15.75
2018-06-17T02:40:57.637Z,15.68
2018-06-17T02:43:32.627Z,15.65
2018-06-17T02:46:22.390Z,15.60
2018-06-17T02:49:10.031Z,15.58
2018-06-17T02:52:01.269Z,15.47
2018-06-17T02:54:43.660Z,15.46
2018-06-17T02:57:21.395Z,15.58
2018-06-17T02:59:54.613Z,15.53
2018-06-17T03:02:26.497Z,15.61
2018-06-17T03:05:01.134Z,15.55
2018-06-17T03:07:36.033Z,15.57
2018-06-17T03:10:09.461Z,15.49
2018-06-17T03:12:42.708Z,15.57
2018-06-17T03:15:16.312Z,15.54
2018-06-17T03:17:49.342Z,15.62
2018-06-17T03:20:20.964Z,15.49
2018-06-17T03:22:52.510Z,15.52
2018-06-17T03:25:41.102Z,15.57
2018-06-17T03:28:30.275Z,15.49
2018-06-17T03:31:22.905Z,15.47
2018-06-17T03:33:55.559Z,15.53
2018-06-17T03:36:27.065Z,15.61
2018-06-17T03:39:00.365Z,15.64
2018-06-17T03:41:32.108Z,15.76
2018-06-17T03:44:03.646Z,15.79
2018-06-17T03:46:35.968Z,15.94
2018-06-17T03:49:10.874Z,15.84
2018-06-17T03:51:44.000Z,15.85
2018-06-17T03:54:15.807Z,15.96
2018-06-17T03:56:45.716Z,16.08
2018-06-17T03:59:20.612Z,16.17
2018-06-17T04:01:53.590Z,16.33
2018-06-17T04:04:27.173Z,16.19
2018-06-17T04:06:58.705Z,16.08
2018-06-17T04:09:32.350Z,16.05
2018-06-17T04:12:03.932Z,16.09
2018-06-17T04:14:33.971Z,16.18
2018-06-17T04:17:11.926Z,16.20
2018-06-17T04:19:45.987Z,16.17
2018-06-17T04:22:17.495Z,16.13
2018-06-17T04:24:50.665Z,16.37
2018-06-17T04:27:23.747Z,16.22
2018-06-17T04:29:57.026Z,16.59
2018-06-17T04:32:28.679Z,16.64
2018-06-17T04:35:01.861Z,16.85
2018-06-17T04:37:33.506Z,16.93
2018-06-17T04:40:08.029Z,16.81
2018-06-17T04:42:40.391Z,16.76
2018-06-17T04:45:13.334Z,17.00
2018-06-17T04:47:46.644Z,17.20
2018-06-17T04:50:19.188Z,17.01
2018-06-17T04:52:52.112Z,16.67
2018-06-17T04:55:25.245Z,16.61
2018-06-17T04:57:58.136Z,16.52
2018-06-17T05:00:31.740Z,16.75
2018-06-17T05:03:04.089Z,17.28
2018-06-17T05:05:37.330Z,17.32
2018-06-17T05:08:10.196Z,17.36
2018-06-17T05:10:42.313Z,17.30
2018-06-17T05:13:12.467Z,16.98
2018-06-17T05:15:46.832Z,16.93
2018-06-17T05:18:19.338Z,16.99
2018-06-17T05:20:50.940Z,17.20
2018-06-17T05:23:22.927Z,17.04
2018-06-17T05:25:56.343Z,17.04
2018-06-17T05:28:29.291Z,17.36
2018-06-17T05:31:02.406Z,17.49
2018-06-17T05:33:35.505Z,17.50
2018-06-17T05:36:08.687Z,17.65
2018-06-17T05:38:40.804Z,17.59
2018-06-17T05:41:15.665Z,17.33
2018-06-17T05:43:48.630Z,17.59
2018-06-17T05:46:23.113Z,17.63
2018-06-17T05:48:56.433Z,17.69
2018-06-17T05:51:27.302Z,17.83
2018-06-17T05:54:00.812Z,17.85
2018-06-17T05:56:35.368Z,18.43
2018-06-17T05:59:07.810Z,18.41
2018-06-17T06:01:39.293Z,18.58
2018-06-17T06:04:11.150Z,18.03
2018-06-17T06:06:45.796Z,18.14
2018-06-17T06:09:19.105Z,18.26
2018-06-17T06:11:52.694Z,18.03
2018-06-17T06:14:27.300Z,17.91
2018-06-17T06:17:00.614Z,17.81
2018-06-17T06:19:33.550Z,17.89
2018-06-17T06:22:06.108Z,17.92
2018-06-17T06:24:39.126Z,18.68
2018-06-17T06:27:14.071Z,18.71
2018-06-17T06:29:48.760Z,18.54
2018-06-17T06:32:21.942Z,18.58
2018-06-17T06:34:55.117Z,18.53
2018-06-17T06:37:29.488Z,18.32
2018-06-17T06:40:01.018Z,18.71
2018-06-17T06:42:31.087Z,18.27
2018-06-17T06:45:04.415Z,18.50
2018-06-17T06:47:37.338Z,19.04
2018-06-17T06:50:07.439Z,18.94
2018-06-17T06:52:41.017Z,19.01
2018-06-17T06:55:13.865Z,19.08
2018-06-17T06:57:46.865Z,19.15
2018-06-17T07:00:21.463Z,18.76
2018-06-17T07:03:29.400Z,19.12
2018-06-17T07:06:35.345Z,19.03
2018-06-17T07:09:42.793Z,18.96
2018-06-17T07:12:14.290Z,19.33
2018-06-17T07:14:45.704Z,19.66
2018-06-17T07:17:52.916Z,19.17
2018-06-17T07:20:25.321Z,19.08
2018-06-17T07:22:58.767Z,19.06
2018-06-17T07:26:24.134Z,18.77
2018-06-17T07:29:39.196Z,18.98
2018-06-17T07:32:10.947Z,19.05
2018-06-17T07:34:45.560Z,18.98
2018-06-17T07:37:18.788Z,19.28
2018-06-17T07:40:29.162Z,18.98
2018-06-17T07:43:03.097Z,19.09
2018-06-17T07:45:34.514Z,18.76
2018-06-17T07:48:06.593Z,19.14
2018-06-17T07:51:12.527Z,19.34
2018-06-17T07:53:44.295Z,19.17
2018-06-17T07:56:17.327Z,18.89
2018-06-17T07:58:50.269Z,19.26
2018-06-17T08:01:25.045Z,19.17
2018-06-17T08:03:58.636Z,19.07
2018-06-17T08:06:27.733Z,18.92
2018-06-17T08:09:00.042Z,19.25
2018-06-17T08:11:31.560Z,19.12
2018-06-17T08:14:04.642Z,18.81
2018-06-17T08:16:38.022Z,18.76
2018-06-17T08:19:11.161Z,18.79
2018-06-17T08:21:42.551Z,18.54
2018-06-17T08:24:12.617Z,18.65
2018-06-17T08:26:44.727Z,18.75
2018-06-17T08:29:17.960Z,19.00
2018-06-17T08:31:50.554Z,18.97
2018-06-17T08:34:21.963Z,19.46
2018-06-17T08:36:55.093Z,19.75
2018-06-17T08:39:28.348Z,19.93
2018-06-17T08:41:58.219Z,19.82
2018-06-17T08:44:31.236Z,19.46
2018-06-17T08:47:02.785Z,19.53
2018-06-17T08:49:34.267Z,19.27
2018-06-17T08:52:06.450Z,19.03
2018-06-17T08:54:41.100Z,19.05
2018-06-17T08:57:13.039Z,18.63
2018-06-17T08:59:44.598Z,18.74
2018-06-17T09:02:15.981Z,18.87
2018-06-17T09:04:49.086Z,18.74
2018-06-17T09:07:23.514Z,18.30
2018-06-17T09:09:55.774Z,18.44
2018-06-17T09:12:27.388Z,18.62
2018-06-17T09:15:01.744Z,19.42
2018-06-17T09:17:34.858Z,19.40
2018-06-17T09:20:07.873Z,19.23
2018-06-17T09:22:38.764Z,19.24
2018-06-17T09:25:10.182Z,19.06
2018-06-17T09:27:43.217Z,18.89
2018-06-17T09:30:16.283Z,18.73
2018-06-17T09:32:47.628Z,18.59
2018-06-17T09:35:19.291Z,18.76
2018-06-17T09:37:50.695Z,19.44
2018-06-17T09:40:21.016Z,19.49
2018-06-17T09:42:54.008Z,19.63
2018-06-17T09:45:27.132Z,19.48
2018-06-17T09:47:58.795Z,19.52
2018-06-17T09:50:31.687Z,19.16
2018-06-17T09:53:03.269Z,19.33
2018-06-17T09:55:33.635Z,18.96
2018-06-17T09:58:05.115Z,18.80
2018-06-17T10:00:40.114Z,19.13
2018-06-17T10:03:14.539Z,19.25
2018-06-17T10:05:46.607Z,19.24
2018-06-17T10:08:18.579Z,19.27
2018-06-17T10:11:03.845Z,19.37
2018-06-17T10:13:43.182Z,19.51
2018-06-17T10:16:16.695Z,19.65
2018-06-17T10:18:48.217Z,19.83
2018-06-17T10:21:18.238Z,19.81
2018-06-17T10:23:49.061Z,19.19
2018-06-17T10:26:25.224Z,18.66
2018-06-17T10:28:57.265Z,18.84
2018-06-17T10:31:30.243Z,18.88
2018-06-17T10:34:03.249Z,19.15
2018-06-17T10:36:34.816Z,19.14
2018-06-17T10:39:10.190Z,19.44
2018-06-17T10:41:41.711Z,19.42
2018-06-17T10:44:16.567Z,19.36
2018-06-17T10:46:48.085Z,19.52
2018-06-17T10:49:19.676Z,19.33
2018-06-17T10:51:50.070Z,19.45
2018-06-17T10:54:23.308Z,19.10
2018-06-17T10:56:55.439Z,19.25
2018-06-17T10:59:26.882Z,19.19
2018-06-17T11:01:58.415Z,19.51
2018-06-17T11:04:28.381Z,19.56
2018-06-17T11:06:59.790Z,19.81
2018-06-17T11:09:29.719Z,20.10
2018-06-17T11:12:00.409Z,19.91
2018-06-17T11:14:30.353Z,19.89
2018-06-17T11:17:01.926Z,19.63
2018-06-17T11:19:34.974Z,19.69
2018-06-17T11:22:07.792Z,19.25
2018-06-17T11:24:41.012Z,19.27
2018-06-17T11:27:12.484Z,19.20
2018-06-17T11:29:45.905Z,19.13
2018-06-17T11:32:17.350Z,18.88
2018-06-17T11:34:48.935Z,19.24
2018-06-17T11:37:20.955Z,19.14
2018-06-17T11:39:53.881Z,19.08
2018-06-17T11:42:27.104Z,18.96
2018-06-17T11:44:59.992Z,18.91
2018-06-17T11:47:29.965Z,18.93
2018-06-17T11:49:59.978Z,19.03
2018-06-17T11:52:32.953Z,18.86
2018-06-17T11:55:06.082Z,18.98
2018-06-17T11:57:39.914Z,18.98
2018-06-17T12:00:11.550Z,18.90
2018-06-17T12:02:42.997Z,18.68
2018-06-17T12:05:15.930Z,18.57
2018-06-17T12:07:48.977Z,18.59
2018-06-17T12:10:20.930Z,18.98
2018-06-17T12:12:52.384Z,19.19
2018-06-17T12:15:24.020Z,19.46
2018-06-17T12:17:56.088Z,19.88
2018-06-17T12:20:27.828Z,20.00
2018-06-17T12:22:58.257Z,20.15
2018-06-17T12:25:32.947Z,20.40
2018-06-17T12:28:06.081Z,20.30
2018-06-17T12:30:40.035Z,20.39
2018-06-17T12:33:11.579Z,19.70
2018-06-17T12:35:44.415Z,19.86
2018-06-17T12:38:19.246Z,20.17
2018-06-17T12:40:50.795Z,20.27
2018-06-17T12:43:21.669Z,20.08
2018-06-17T12:45:54.749Z,20.13
2018-06-17T12:48:26.198Z,20.07
2018-06-17T12:51:00.837Z,20.31
2018-06-17T12:53:32.432Z,20.61
2018-06-17T12:56:04.375Z,20.91
2018-06-17T12:58:39.070Z,20.87
2018-06-17T13:01:10.705Z,20.74
2018-06-17T13:03:42.151Z,20.60
2018-06-17T13:06:13.755Z,20.81
2018-06-17T13:08:46.611Z,20.71
2018-06-17T13:11:18.141Z,20.62
2018-06-17T13:13:49.591Z,20.45
2018-06-17T13:16:22.945Z,20.40
2018-06-17T13:18:54.466Z,19.90
2018-06-17T13:21:26.746Z,20.11
2018-06-17T13:23:58.325Z,20.29
2018-06-17T13:26:31.487Z,19.90
2018-06-17T13:29:05.817Z,20.11
2018-06-17T13:31:38.769Z,20.19
2018-06-17T13:34:10.408Z,20.22
2018-06-17T13:36:45.084Z,20.13
2018-06-17T13:39:17.537Z,20.22
2018-06-17T13:41:48.041Z,20.28
2018-06-17T13:44:22.836Z,20.05
2018-06-17T13:46:52.795Z,20.17
2018-06-17T13:49:26.284Z,20.26
2018-06-17T13:51:59.426Z,20.24
2018-06-17T13:54:32.617Z,20.25
2018-06-17T13:57:04.049Z,20.47
2018-06-17T13:59:39.080Z,20.47
2018-06-17T14:02:11.886Z,20.48
2018-06-17T14:04:44.893Z,19.83
2018-06-17T14:07:16.520Z,19.97
2018-06-17T14:09:49.496Z,19.94
2018-06-17T14:12:19.520Z,19.87
2018-06-17T14:14:54.189Z,19.41
2018-06-17T14:17:27.513Z,19.64
2018-06-17T14:19:59.065Z,19.55
2018-06-17T14:22:32.066Z,19.45
2018-06-17T14:25:05.036Z,19.62
2018-06-17T14:27:37.062Z,19.77
2018-06-17T14:30:11.239Z,19.88
2018-06-17T14:32:44.500Z,19.65
2018-06-17T14:35:17.813Z,19.88
2018-06-17T14:37:49.226Z,19.61
2018-06-17T14:40:19.268Z,19.70
2018-06-17T14:43:07.164Z,19.98
2018-06-17T14:45:56.497Z,20.48
2018-06-17T14:49:04.182Z,20.36
2018-06-17T14:51:53.469Z,20.62
2018-06-17T14:54:23.885Z,20.33
2018-06-17T14:56:56.840Z,20.00
2018-06-17T14:59:26.773Z,19.66
2018-06-17T15:02:01.538Z,18.44
2018-06-17T15:04:36.090Z,18.17
2018-06-17T15:07:07.638Z,18.24
2018-06-17T15:09:41.464Z,17.66
2018-06-17T15:12:13.071Z,17.43
2018-06-17T15:14:47.806Z,17.32
2018-06-17T15:17:20.739Z,17.39
2018-06-17T15:19:52.956Z,17.54
2018-06-17T15:22:27.034Z,17.58
2018-06-17T15:25:00.222Z,17.59
2018-06-17T15:27:33.707Z,17.08
2018-06-17T15:30:06.587Z,17.31
2018-06-17T15:32:57.119Z,17.08
2018-06-17T15:35:47.676Z,17.06
2018-06-17T15:38:36.955Z,17.07
2018-06-17T15:41:29.622Z,16.93
2018-06-17T15:44:01.303Z,17.07
2018-06-17T15:46:34.261Z,17.15
2018-06-17T15:49:07.363Z,17.29
2018-06-17T15:51:37.473Z,17.14
2018-06-17T15:54:07.509Z,17.32
2018-06-17T15:56:39.053Z,17.52
2018-06-17T15:59:12.084Z,17.48
2018-06-17T16:01:45.635Z,17.56
2018-06-17T16:04:18.690Z,17.41
2018-06-17T16:06:50.800Z,17.60
2018-06-17T16:09:25.454Z,17.47
2018-06-17T16:12:16.135Z,17.46
2018-06-17T16:15:04.353Z,17.17
2018-06-17T16:17:53.932Z,17.37
2018-06-17T16:20:41.673Z,17.27
2018-06-17T16:23:13.387Z,17.45
2018-06-17T16:25:44.806Z,17.55
2018-06-17T16:28:16.624Z,17.64
2018-06-17T16:30:49.303Z,17.92
2018-06-17T16:33:20.956Z,17.71
2018-06-17T16:35:52.464Z,17.60
2018-06-17T16:38:26.961Z,17.99
2018-06-17T16:40:59.958Z,18.03
2018-06-17T16:43:31.380Z,18.03
2018-06-17T16:46:04.447Z,17.83
2018-06-17T16:48:36.136Z,17.94
2018-06-17T16:51:26.906Z,17.95
2018-06-17T16:54:17.340Z,18.17
2018-06-17T16:57:06.473Z,17.85
2018-06-17T16:59:57.723Z,17.80
2018-06-17T17:02:30.694Z,17.06
2018-06-17T17:05:03.948Z,17.11
2018-06-17T17:07:37.191Z,17.21
2018-06-17T17:10:10.161Z,17.30
2018-06-17T17:12:43.682Z,17.37
2018-06-17T17:15:16.967Z,17.23
2018-06-17T17:17:47.072Z,17.49
2018-06-17T17:20:20.279Z,17.46
2018-06-17T17:22:53.523Z,17.33
2018-06-17T17:25:26.657Z,17.51
2018-06-17T17:27:58.193Z,17.28
2018-06-17T17:30:31.033Z,17.25
2018-06-17T17:33:21.676Z,17.27
2018-06-17T17:36:12.414Z,17.30
2018-06-17T17:39:01.331Z,17.34
2018-06-17T17:41:33.605Z,17.42
2018-06-17T17:44:07.071Z,17.47
2018-06-17T17:46:57.493Z,17.57
2018-06-17T17:49:28.940Z,17.55
2018-06-17T17:52:02.062Z,17.80
2018-06-17T17:54:34.932Z,17.77
2018-06-17T17:57:08.166Z,17.90
2018-06-17T17:59:42.008Z,17.89
2018-06-17T18:02:15.200Z,17.78
2018-06-17T18:04:48.271Z,17.84
2018-06-17T18:07:21.227Z,17.96
2018-06-17T18:09:54.250Z,17.98
2018-06-17T18:12:27.314Z,17.75
2018-06-17T18:15:02.021Z,17.85
2018-06-17T18:17:35.240Z,17.87
2018-06-17T18:20:07.025Z,17.90
2018-06-17T18:22:40.109Z,17.78
2018-06-17T18:25:29.506Z,17.82
2018-06-17T18:28:17.034Z,17.86
2018-06-17T18:30:56.976Z,17.89
2018-06-17T18:33:46.146Z,17.92
2018-06-17T18:36:23.933Z,18.09
2018-06-17T18:38:55.554Z,18.00
2018-06-17T18:41:28.562Z,18.12
2018-06-17T18:44:02.630Z,18.22
2018-06-17T18:46:35.021Z,17.92
2018-06-17T18:49:08.253Z,17.96
2018-06-17T18:51:41.301Z,17.88
2018-06-17T18:54:16.037Z,17.90
2018-06-17T18:56:47.646Z,17.86
2018-06-17T18:59:22.680Z,17.78
2018-06-17T19:01:55.767Z,17.80
2018-06-17T19:04:25.703Z,17.56
2018-06-17T19:06:57.534Z,17.83
2018-06-17T19:09:46.510Z,17.76
2018-06-17T19:12:33.812Z,17.88
2018-06-17T19:15:22.815Z,17.84
2018-06-17T19:18:12.163Z,17.74
2018-06-17T19:20:45.290Z,17.85
2018-06-17T19:23:18.578Z,17.73
2018-06-17T19:25:51.748Z,17.89
2018-06-17T19:28:24.911Z,17.92
2018-06-17T19:30:56.378Z,17.76
2018-06-17T19:33:29.530Z,17.43
2018-06-17T19:36:00.525Z,17.52
2018-06-17T19:38:35.156Z,17.52
2018-06-17T19:41:07.785Z,17.39
2018-06-17T19:43:39.044Z,17.26
2018-06-17T19:46:12.102Z,17.34
2018-06-17T19:48:42.255Z,17.24
2018-06-17T19:51:31.430Z,17.27
2018-06-17T19:54:19.058Z,17.40
2018-06-17T19:57:08.218Z,17.37
2018-06-17T19:59:57.061Z,17.56
2018-06-17T20:02:29.982Z,17.53
2018-06-17T20:05:03.217Z,17.36
2018-06-17T20:07:36.416Z,17.36
2018-06-17T20:10:09.411Z,17.47
2018-06-17T20:12:40.863Z,17.36
2018-06-17T20:15:10.899Z,17.35
2018-06-17T20:17:44.090Z,17.36
2018-06-17T20:20:17.130Z,17.07
2018-06-17T20:22:51.916Z,16.83
2018-06-17T20:25:24.940Z,16.89
2018-06-17T20:27:57.068Z,17.16
2018-06-17T20:30:27.016Z,17.29
2018-06-17T20:33:17.167Z,17.14
2018-06-17T20:36:06.447Z,17.00
2018-06-17T20:38:55.602Z,16.80
2018-06-17T20:41:44.253Z,16.66
2018-06-17T20:44:15.822Z,16.86
2018-06-17T20:46:50.294Z,16.72
2018-06-17T20:49:25.185Z,16.77
2018-06-17T20:51:58.284Z,16.66
2018-06-17T20:54:29.101Z,16.61
2018-06-17T20:57:02.349Z,16.57
2018-06-17T20:59:35.912Z,16.72
2018-06-17T21:02:05.930Z,16.62
2018-06-17T21:04:39.449Z,16.71
2018-06-17T21:07:14.405Z,16.89
2018-06-17T21:09:48.964Z,16.88
2018-06-17T21:12:22.106Z,16.95
2018-06-17T21:14:56.780Z,16.84
2018-06-17T21:17:28.569Z,16.73
2018-06-17T21:20:37.043Z,16.89
2018-06-17T21:23:26.509Z,16.98
2018-06-17T21:26:15.571Z,16.93
2018-06-17T21:28:48.690Z,16.74
2018-06-17T21:31:21.639Z,16.82
2018-06-17T21:33:54.873Z,16.88
2018-06-17T21:36:28.576Z,17.07
2018-06-17T21:38:58.177Z,17.04
2018-06-17T21:41:31.414Z,16.97
2018-06-17T21:44:03.591Z,17.06
2018-06-17T21:46:38.068Z,17.13
2018-06-17T21:49:09.624Z,17.04
2018-06-17T21:51:44.327Z,17.11
2018-06-17T21:54:14.628Z,16.91
2018-06-17T21:56:47.649Z,16.61
2018-06-17T21:59:22.140Z,16.65
2018-06-17T22:01:53.633Z,16.78
2018-06-17T22:04:44.613Z,16.57
2018-06-17T22:07:19.256Z,16.60
2018-06-17T22:10:07.593Z,16.46
2018-06-17T22:12:56.330Z,16.45
2018-06-17T22:15:44.312Z,16.39
2018-06-17T22:18:17.400Z,16.48
2018-06-17T22:20:51.024Z,16.36
2018-06-17T22:23:22.534Z,16.55
2018-06-17T22:25:56.952Z,16.52
2018-06-17T22:28:31.785Z,16.62
2018-06-17T22:31:04.852Z,16.53
2018-06-17T22:33:39.476Z,16.52
2018-06-17T22:36:10.941Z,16.65
2018-06-17T22:38:43.856Z,16.67
2018-06-17T22:41:15.425Z,16.44
2018-06-17T22:43:48.696Z,16.62
2018-06-17T22:46:22.072Z,16.68
2018-06-17T22:48:51.508Z,16.76
2018-06-17T22:51:25.007Z,16.65
2018-06-17T22:54:32.665Z,16.77
2018-06-17T22:57:23.259Z,16.72
2018-06-17T23:00:10.805Z,16.73
2018-06-17T23:03:00.365Z,16.68
2018-06-17T23:05:49.191Z,16.94
2018-06-17T23:08:39.857Z,16.96
2018-06-17T23:11:11.763Z,16.94
2018-06-17T23:13:44.737Z,16.95
2018-06-17T23:16:16.108Z,16.99
2018-06-17T23:18:49.342Z,17.04
2018-06-17T23:21:23.705Z,17.13
2018-06-17T23:23:56.631Z,17.09
2018-06-17T23:26:28.093Z,17.08
2018-06-17T23:29:02.754Z,17.05
2018-06-17T23:31:32.814Z,17.14
2018-06-17T23:34:04.524Z,17.10
2018-06-17T23:36:38.207Z,17.20
2018-06-17T23:39:13.970Z,17.11
2018-06-17T23:41:48.868Z,17.14
2018-06-17T23:44:21.781Z,16.92
2018-06-17T23:47:09.360Z,17.02
2018-06-17T23:49:59.653Z,16.99
2018-06-17T23:52:50.563Z,16.99
2018-06-17T23:55:41.226Z,16.97
2018-06-17T23:58:14.274Z,16.98
